Moosonee Airport
CYMO : now visible

Airfield :











YOU CAN JOIN US ON...

 
LOGIN :

Register | Disclaimer

   EN    FR    IT 

 









Legend :    VFR   Marginal VFR   IFR   Intensive IFR   Very Intensive IFR
Visi :
Ceiling :
>= 8 km
>= 3000ft
5 to 8 km
1000 to 3000 ft
1500m to 5 km
500 to 1000 ft
800 to 1500m
200 to 500 ft
< 800m
< 200 ft
Symbols :   Thunderstorms  Fog  Heavy snow  Heavy precipitations  Wind > 20 kt






- Airport Elevation : 30 ft
- IATA code : YMO


CYMO - Moosonee

CURRENT METAR :
  • 071400Z AUTO 21013KT 9SM CLR 21/15 A2993 RMK SLP136 DENSITY ALT 700FT

EXPIRED METARs :
  • 071300Z AUTO 22008KT 9SM CLR 20/15 A2993 RMK SLP136 DENSITY ALT 500FT
  • 071200Z AUTO 22010KT 9SM CLR 18/15 A2993 RMK SLP135 DENSITY ALT 300FT

TAF TAF CYMO
Valid from the 07 at 12:00 until the 08 at 00:00 UTC


071138Z 0712/0724 22012KT P6SM FEW070
BECMG 0716/0718 24010G20KT RMK FCST BASED ON AUTO OBS. NXT FCST BY 071800Z
CZYZ FIR / North America



MET'MAP, your aeronautical weather chart ! - Copyright ORBIFLY December 2007 - Disclaimer

ORBIFLY MET'MAP TEAM :

Programming & Development : Alexandra Zaïnal
Concept & original design : Baudouin d'Aumeries
Assistance for programming : Marc-Olivier Méhu
Technical & hardware support : Manuel Goepfert

Contact : metmap@orbifly.com




SOURCES & CREDITS :

   NOAA       Earth
Advisory